sensor_id;sensor_type;location;lat;lon;timestamp;temperature;humidity
43842;DHT22;29495;49.970;20.842;2023-04-16T00:00:31;7.40;99.90
43842;DHT22;29495;49.970;20.842;2023-04-16T00:02:57;7.30;99.90
43842;DHT22;29495;49.970;20.842;2023-04-16T00:05:23;7.10;99.90
43842;DHT22;29495;49.970;20.842;2023-04-16T00:07:49;7.00;99.90
43842;DHT22;29495;49.970;20.842;2023-04-16T00:10:16;7.00;99.90
43842;DHT22;29495;49.970;20.842;2023-04-16T00:12:42;7.00;99.90
43842;DHT22;29495;49.970;20.842;2023-04-16T00:15:07;7.00;99.90
43842;DHT22;29495;49.970;20.842;2023-04-16T00:17:33;7.00;99.90
43842;DHT22;29495;49.970;20.842;2023-04-16T00:19:59;7.00;99.90
43842;DHT22;29495;49.970;20.842;2023-04-16T00:22:25;7.10;99.90
43842;DHT22;29495;49.970;20.842;2023-04-16T00:24:51;7.20;99.90
43842;DHT22;29495;49.970;20.842;2023-04-16T00:27:17;7.20;99.90
43842;DHT22;29495;49.970;20.842;2023-04-16T00:29:43;7.20;99.90
43842;DHT22;29495;49.970;20.842;2023-04-16T00:32:09;7.20;99.90
43842;DHT22;29495;49.970;20.842;2023-04-16T00:34:35;7.10;99.90
43842;DHT22;29495;49.970;20.842;2023-04-16T00:37:00;7.10;99.90
43842;DHT22;29495;49.970;20.842;2023-04-16T00:39:26;6.90;99.90
43842;DHT22;29495;49.970;20.842;2023-04-16T00:41:52;6.80;99.90
43842;DHT22;29495;49.970;20.842;2023-04-16T00:44:18;6.90;99.90
43842;DHT22;29495;49.970;20.842;2023-04-16T00:46:44;6.90;99.90
43842;DHT22;29495;49.970;20.842;2023-04-16T00:49:10;6.90;99.90
43842;DHT22;29495;49.970;20.842;2023-04-16T00:51:36;7.00;99.90
43842;DHT22;29495;49.970;20.842;2023-04-16T00:54:02;7.10;99.90
43842;DHT22;29495;49.970;20.842;2023-04-16T00:56:28;7.00;99.90
43842;DHT22;29495;49.970;20.842;2023-04-16T00:58:54;7.10;99.90
43842;DHT22;29495;49.970;20.842;2023-04-16T01:01:23;7.10;99.90
43842;DHT22;29495;49.970;20.842;2023-04-16T01:03:49;7.10;99.90
43842;DHT22;29495;49.970;20.842;2023-04-16T01:06:16;7.10;99.90
43842;DHT22;29495;49.970;20.842;2023-04-16T01:08:42;7.10;99.90
43842;DHT22;29495;49.970;20.842;2023-04-16T01:11:11;7.00;99.90
43842;DHT22;29495;49.970;20.842;2023-04-16T01:13:37;7.20;99.90
43842;DHT22;29495;49.970;20.842;2023-04-16T01:16:06;7.10;99.90
43842;DHT22;29495;49.970;20.842;2023-04-16T01:18:32;7.00;99.90
43842;DHT22;29495;49.970;20.842;2023-04-16T01:20:59;6.90;99.90
43842;DHT22;29495;49.970;20.842;2023-04-16T01:23:24;6.80;99.90
43842;DHT22;29495;49.970;20.842;2023-04-16T01:25:52;6.80;99.90
43842;DHT22;29495;49.970;20.842;2023-04-16T01:28:17;6.50;99.90
43842;DHT22;29495;49.970;20.842;2023-04-16T01:30:43;6.40;99.90
43842;DHT22;29495;49.970;20.842;2023-04-16T01:33:27;6.50;99.90
43842;DHT22;29495;49.970;20.842;2023-04-16T01:35:53;6.50;99.90
43842;DHT22;29495;49.970;20.842;2023-04-16T01:38:19;6.40;99.90
43842;DHT22;29495;49.970;20.842;2023-04-16T01:40:45;6.20;99.90
43842;DHT22;29495;49.970;20.842;2023-04-16T01:43:11;6.40;99.90
43842;DHT22;29495;49.970;20.842;2023-04-16T01:45:36;6.40;99.90
43842;DHT22;29495;49.970;20.842;2023-04-16T01:48:02;6.40;99.90
43842;DHT22;29495;49.970;20.842;2023-04-16T01:50:29;6.50;99.90
43842;DHT22;29495;49.970;20.842;2023-04-16T01:52:55;6.40;99.90
43842;DHT22;29495;49.970;20.842;2023-04-16T01:55:22;6.40;99.90
43842;DHT22;29495;49.970;20.842;2023-04-16T01:57:48;6.40;99.90
43842;DHT22;29495;49.970;20.842;2023-04-16T02:00:14;6.30;99.90
43842;DHT22;29495;49.970;20.842;2023-04-16T02:02:46;6.30;99.90
43842;DHT22;29495;49.970;20.842;2023-04-16T02:05:20;6.30;99.90
43842;DHT22;29495;49.970;20.842;2023-04-16T02:07:46;6.40;99.90
43842;DHT22;29495;49.970;20.842;2023-04-16T02:10:12;6.40;99.90
43842;DHT22;29495;49.970;20.842;2023-04-16T02:12:39;6.50;99.90
43842;DHT22;29495;49.970;20.842;2023-04-16T02:15:05;6.50;99.90
43842;DHT22;29495;49.970;20.842;2023-04-16T02:17:31;6.40;99.90
43842;DHT22;29495;49.970;20.842;2023-04-16T02:20:06;6.40;99.90
43842;DHT22;29495;49.970;20.842;2023-04-16T02:22:37;6.50;99.90
43842;DHT22;29495;49.970;20.842;2023-04-16T02:25:03;6.50;99.90
43842;DHT22;29495;49.970;20.842;2023-04-16T02:27:29;6.50;99.90
43842;DHT22;29495;49.970;20.842;2023-04-16T02:30:03;6.40;99.90
43842;DHT22;29495;49.970;20.842;2023-04-16T02:32:32;6.30;99.90
43842;DHT22;29495;49.970;20.842;2023-04-16T02:34:57;6.20;99.90
43842;DHT22;29495;49.970;20.842;2023-04-16T02:37:23;6.10;99.90
43842;DHT22;29495;49.970;20.842;2023-04-16T02:39:51;6.10;99.90
43842;DHT22;29495;49.970;20.842;2023-04-16T02:42:18;6.10;99.90
43842;DHT22;29495;49.970;20.842;2023-04-16T02:44:45;6.00;99.90
43842;DHT22;29495;49.970;20.842;2023-04-16T02:47:10;5.90;99.90
43842;DHT22;29495;49.970;20.842;2023-04-16T02:49:36;6.00;99.90
43842;DHT22;29495;49.970;20.842;2023-04-16T02:52:02;6.00;99.90
43842;DHT22;29495;49.970;20.842;2023-04-16T02:54:28;5.90;99.90
43842;DHT22;29495;49.970;20.842;2023-04-16T02:56:54;5.90;99.90
43842;DHT22;29495;49.970;20.842;2023-04-16T02:59:20;5.90;99.90
43842;DHT22;29495;49.970;20.842;2023-04-16T03:01:46;5.70;99.90
43842;DHT22;29495;49.970;20.842;2023-04-16T03:04:11;5.70;99.90
43842;DHT22;29495;49.970;20.842;2023-04-16T03:06:37;5.80;99.90
43842;DHT22;29495;49.970;20.842;2023-04-16T03:09:03;5.80;99.90
43842;DHT22;29495;49.970;20.842;2023-04-16T03:11:29;5.90;99.90
43842;DHT22;29495;49.970;20.842;2023-04-16T03:13:55;5.80;99.90
43842;DHT22;29495;49.970;20.842;2023-04-16T03:16:21;5.90;99.90
43842;DHT22;29495;49.970;20.842;2023-04-16T03:18:46;5.90;99.90
43842;DHT22;29495;49.970;20.842;2023-04-16T03:21:12;5.80;99.90
43842;DHT22;29495;49.970;20.842;2023-04-16T03:23:38;5.70;99.90
43842;DHT22;29495;49.970;20.842;2023-04-16T03:26:04;5.60;99.90
43842;DHT22;29495;49.970;20.842;2023-04-16T03:28:31;5.70;99.90
43842;DHT22;29495;49.970;20.842;2023-04-16T03:30:57;5.80;99.90
43842;DHT22;29495;49.970;20.842;2023-04-16T03:33:23;5.70;99.90
43842;DHT22;29495;49.970;20.842;2023-04-16T03:35:53;5.50;99.90
43842;DHT22;29495;49.970;20.842;2023-04-16T03:38:19;5.40;99.90
43842;DHT22;29495;49.970;20.842;2023-04-16T03:40:45;5.50;99.90
43842;DHT22;29495;49.970;20.842;2023-04-16T03:43:13;5.40;99.90
43842;DHT22;29495;49.970;20.842;2023-04-16T03:45:43;5.40;99.90
43842;DHT22;29495;49.970;20.842;2023-04-16T03:48:10;5.40;99.90
43842;DHT22;29495;49.970;20.842;2023-04-16T03:50:35;5.50;99.90
43842;DHT22;29495;49.970;20.842;2023-04-16T03:53:05;5.50;99.90
43842;DHT22;29495;49.970;20.842;2023-04-16T03:55:31;5.40;99.90
43842;DHT22;29495;49.970;20.842;2023-04-16T03:57:57;5.40;99.90
43842;DHT22;29495;49.970;20.842;2023-04-16T04:00:22;5.40;99.90
43842;DHT22;29495;49.970;20.842;2023-04-16T04:02:59;5.30;99.90
43842;DHT22;29495;49.970;20.842;2023-04-16T04:05:26;5.40;99.90
43842;DHT22;29495;49.970;20.842;2023-04-16T04:07:51;5.40;99.90
43842;DHT22;29495;49.970;20.842;2023-04-16T04:10:17;5.40;99.90
43842;DHT22;29495;49.970;20.842;2023-04-16T04:12:43;5.60;99.90
43842;DHT22;29495;49.970;20.842;2023-04-16T04:15:09;5.70;99.90
43842;DHT22;29495;49.970;20.842;2023-04-16T04:17:35;5.80;99.90
43842;DHT22;29495;49.970;20.842;2023-04-16T04:20:01;6.00;99.90
43842;DHT22;29495;49.970;20.842;2023-04-16T04:22:29;6.00;99.90
43842;DHT22;29495;49.970;20.842;2023-04-16T04:24:55;5.90;99.90
43842;DHT22;29495;49.970;20.842;2023-04-16T04:27:22;5.80;99.90
43842;DHT22;29495;49.970;20.842;2023-04-16T04:29:47;5.90;99.90
43842;DHT22;29495;49.970;20.842;2023-04-16T04:32:13;6.00;99.90
43842;DHT22;29495;49.970;20.842;2023-04-16T04:34:39;6.30;99.90
43842;DHT22;29495;49.970;20.842;2023-04-16T04:37:06;6.40;99.90
43842;DHT22;29495;49.970;20.842;2023-04-16T04:39:32;6.50;99.90
43842;DHT22;29495;49.970;20.842;2023-04-16T04:41:58;6.50;99.90
43842;DHT22;29495;49.970;20.842;2023-04-16T04:44:24;6.70;99.90
43842;DHT22;29495;49.970;20.842;2023-04-16T04:46:50;7.20;99.90
43842;DHT22;29495;49.970;20.842;2023-04-16T04:49:18;7.60;99.90
43842;DHT22;29495;49.970;20.842;2023-04-16T04:51:43;8.40;99.90
43842;DHT22;29495;49.970;20.842;2023-04-16T04:54:09;9.20;99.90
43842;DHT22;29495;49.970;20.842;2023-04-16T04:56:35;9.60;99.90
43842;DHT22;29495;49.970;20.842;2023-04-16T04:59:01;10.90;99.90
43842;DHT22;29495;49.970;20.842;2023-04-16T05:01:27;12.10;99.90
43842;DHT22;29495;49.970;20.842;2023-04-16T05:03:53;12.80;99.90
43842;DHT22;29495;49.970;20.842;2023-04-16T05:06:19;13.40;98.10
43842;DHT22;29495;49.970;20.842;2023-04-16T05:08:44;13.90;95.50
43842;DHT22;29495;49.970;20.842;2023-04-16T05:11:10;14.90;93.00
43842;DHT22;29495;49.970;20.842;2023-04-16T05:13:36;15.90;91.60
43842;DHT22;29495;49.970;20.842;2023-04-16T05:16:02;16.80;86.80
43842;DHT22;29495;49.970;20.842;2023-04-16T05:18:28;17.40;81.70
43842;DHT22;29495;49.970;20.842;2023-04-16T05:20:53;17.70;76.50
43842;DHT22;29495;49.970;20.842;2023-04-16T05:23:20;18.30;74.40
43842;DHT22;29495;49.970;20.842;2023-04-16T05:25:46;18.10;72.90
43842;DHT22;29495;49.970;20.842;2023-04-16T05:28:11;18.10;69.40
43842;DHT22;29495;49.970;20.842;2023-04-16T05:30:37;18.50;67.40
43842;DHT22;29495;49.970;20.842;2023-04-16T05:33:03;19.10;66.20
43842;DHT22;29495;49.970;20.842;2023-04-16T05:35:29;19.40;66.70
43842;DHT22;29495;49.970;20.842;2023-04-16T05:37:54;19.80;62.50
43842;DHT22;29495;49.970;20.842;2023-04-16T05:40:20;19.90;62.10
43842;DHT22;29495;49.970;20.842;2023-04-16T05:42:46;20.20;59.80
43842;DHT22;29495;49.970;20.842;2023-04-16T05:45:12;20.40;59.50
43842;DHT22;29495;49.970;20.842;2023-04-16T05:47:38;20.40;58.00
43842;DHT22;29495;49.970;20.842;2023-04-16T05:50:04;21.10;56.90
43842;DHT22;29495;49.970;20.842;2023-04-16T05:52:30;20.70;58.00
43842;DHT22;29495;49.970;20.842;2023-04-16T05:54:55;20.60;56.80
43842;DHT22;29495;49.970;20.842;2023-04-16T05:57:22;20.80;56.10
43842;DHT22;29495;49.970;20.842;2023-04-16T05:59:48;21.40;55.90
43842;DHT22;29495;49.970;20.842;2023-04-16T06:02:14;21.70;57.30
43842;DHT22;29495;49.970;20.842;2023-04-16T06:04:40;21.30;54.70
43842;DHT22;29495;49.970;20.842;2023-04-16T06:07:06;22.00;53.00
43842;DHT22;29495;49.970;20.842;2023-04-16T06:09:32;22.50;52.70
43842;DHT22;29495;49.970;20.842;2023-04-16T06:11:58;22.50;52.00
43842;DHT22;29495;49.970;20.842;2023-04-16T06:14:24;22.00;52.50
43842;DHT22;29495;49.970;20.842;2023-04-16T06:16:49;22.80;50.70
43842;DHT22;29495;49.970;20.842;2023-04-16T06:19:15;22.30;50.90
43842;DHT22;29495;49.970;20.842;2023-04-16T06:21:41;22.00;51.50
43842;DHT22;29495;49.970;20.842;2023-04-16T06:24:07;22.40;50.40
43842;DHT22;29495;49.970;20.842;2023-04-16T06:26:33;22.60;52.20
43842;DHT22;29495;49.970;20.842;2023-04-16T06:28:59;22.40;52.60
43842;DHT22;29495;49.970;20.842;2023-04-16T06:31:24;23.00;52.30
43842;DHT22;29495;49.970;20.842;2023-04-16T06:33:50;23.00;50.30
43842;DHT22;29495;49.970;20.842;2023-04-16T06:36:16;23.20;49.90
43842;DHT22;29495;49.970;20.842;2023-04-16T06:38:42;22.60;48.30
43842;DHT22;29495;49.970;20.842;2023-04-16T06:41:08;22.50;48.60
43842;DHT22;29495;49.970;20.842;2023-04-16T06:43:34;23.30;48.80
43842;DHT22;29495;49.970;20.842;2023-04-16T06:46:00;22.90;50.10
43842;DHT22;29495;49.970;20.842;2023-04-16T06:48:26;23.60;51.40
43842;DHT22;29495;49.970;20.842;2023-04-16T06:50:51;23.80;48.20
43842;DHT22;29495;49.970;20.842;2023-04-16T06:53:17;23.20;51.30
43842;DHT22;29495;49.970;20.842;2023-04-16T06:55:43;24.60;47.80
43842;DHT22;29495;49.970;20.842;2023-04-16T06:58:09;24.20;46.70
43842;DHT22;29495;49.970;20.842;2023-04-16T07:00:35;24.30;47.10
43842;DHT22;29495;49.970;20.842;2023-04-16T07:03:00;24.40;47.20
43842;DHT22;29495;49.970;20.842;2023-04-16T07:05:27;25.70;45.70
43842;DHT22;29495;49.970;20.842;2023-04-16T07:07:53;25.80;46.20
43842;DHT22;29495;49.970;20.842;2023-04-16T07:10:22;25.80;46.80
43842;DHT22;29495;49.970;20.842;2023-04-16T07:12:48;25.40;44.20
43842;DHT22;29495;49.970;20.842;2023-04-16T07:15:13;26.00;44.50
43842;DHT22;29495;49.970;20.842;2023-04-16T07:17:39;25.20;44.30
43842;DHT22;29495;49.970;20.842;2023-04-16T07:20:05;24.90;45.30
43842;DHT22;29495;49.970;20.842;2023-04-16T07:22:32;25.20;43.50
43842;DHT22;29495;49.970;20.842;2023-04-16T07:24:58;25.70;44.10
43842;DHT22;29495;49.970;20.842;2023-04-16T07:27:23;24.90;45.00
43842;DHT22;29495;49.970;20.842;2023-04-16T07:33:31;24.50;45.90
43842;DHT22;29495;49.970;20.842;2023-04-16T07:35:57;24.50;44.90
43842;DHT22;29495;49.970;20.842;2023-04-16T07:38:23;23.70;44.60
43842;DHT22;29495;49.970;20.842;2023-04-16T07:40:48;23.90;45.00
43842;DHT22;29495;49.970;20.842;2023-04-16T07:43:14;23.80;47.10
43842;DHT22;29495;49.970;20.842;2023-04-16T07:45:41;22.50;47.20
43842;DHT22;29495;49.970;20.842;2023-04-16T07:48:06;21.40;50.80
43842;DHT22;29495;49.970;20.842;2023-04-16T07:50:35;21.30;51.00
43842;DHT22;29495;49.970;20.842;2023-04-16T07:53:31;21.00;51.20
43842;DHT22;29495;49.970;20.842;2023-04-16T07:55:56;20.20;53.10
43842;DHT22;29495;49.970;20.842;2023-04-16T07:58:22;20.20;50.30
43842;DHT22;29495;49.970;20.842;2023-04-16T08:00:48;19.80;53.60
43842;DHT22;29495;49.970;20.842;2023-04-16T08:03:37;19.50;54.70
43842;DHT22;29495;49.970;20.842;2023-04-16T08:06:02;19.10;56.30
43842;DHT22;29495;49.970;20.842;2023-04-16T08:08:28;18.90;54.30
43842;DHT22;29495;49.970;20.842;2023-04-16T08:10:54;18.60;55.20
43842;DHT22;29495;49.970;20.842;2023-04-16T08:13:25;18.80;55.10
43842;DHT22;29495;49.970;20.842;2023-04-16T08:15:51;18.90;58.20
43842;DHT22;29495;49.970;20.842;2023-04-16T08:18:19;18.80;56.00
43842;DHT22;29495;49.970;20.842;2023-04-16T08:20:45;18.40;55.30
43842;DHT22;29495;49.970;20.842;2023-04-16T08:23:11;18.50;56.40
43842;DHT22;29495;49.970;20.842;2023-04-16T08:25:37;18.50;58.30
43842;DHT22;29495;49.970;20.842;2023-04-16T08:28:03;18.90;56.80
43842;DHT22;29495;49.970;20.842;2023-04-16T08:30:29;19.10;57.30
43842;DHT22;29495;49.970;20.842;2023-04-16T08:32:55;19.50;54.60
43842;DHT22;29495;49.970;20.842;2023-04-16T08:35:21;19.30;55.10
43842;DHT22;29495;49.970;20.842;2023-04-16T08:37:47;18.80;54.10
43842;DHT22;29495;49.970;20.842;2023-04-16T08:40:13;18.80;57.00
43842;DHT22;29495;49.970;20.842;2023-04-16T08:42:40;18.80;61.10
43842;DHT22;29495;49.970;20.842;2023-04-16T08:45:18;18.90;62.30
43842;DHT22;29495;49.970;20.842;2023-04-16T08:47:44;18.80;57.00
43842;DHT22;29495;49.970;20.842;2023-04-16T08:50:10;19.00;57.00
43842;DHT22;29495;49.970;20.842;2023-04-16T08:52:42;19.30;56.30
43842;DHT22;29495;49.970;20.842;2023-04-16T08:55:13;19.50;58.10
43842;DHT22;29495;49.970;20.842;2023-04-16T08:57:53;19.40;59.40
43842;DHT22;29495;49.970;20.842;2023-04-16T09:00:19;19.60;57.00
43842;DHT22;29495;49.970;20.842;2023-04-16T09:02:45;19.40;57.40
43842;DHT22;29495;49.970;20.842;2023-04-16T09:05:13;19.20;55.80
43842;DHT22;29495;49.970;20.842;2023-04-16T09:07:44;19.50;54.70
43842;DHT22;29495;49.970;20.842;2023-04-16T09:10:11;19.40;54.30
43842;DHT22;29495;49.970;20.842;2023-04-16T09:12:38;19.10;56.10
43842;DHT22;29495;49.970;20.842;2023-04-16T09:15:05;18.30;56.10
43842;DHT22;29495;49.970;20.842;2023-04-16T09:17:31;18.00;57.40
43842;DHT22;29495;49.970;20.842;2023-04-16T09:19:56;18.30;58.20
43842;DHT22;29495;49.970;20.842;2023-04-16T09:22:22;18.10;58.80
43842;DHT22;29495;49.970;20.842;2023-04-16T09:24:48;18.20;57.20
43842;DHT22;29495;49.970;20.842;2023-04-16T09:27:14;18.30;57.30
43842;DHT22;29495;49.970;20.842;2023-04-16T09:29:41;18.10;57.00
43842;DHT22;29495;49.970;20.842;2023-04-16T09:32:08;18.00;56.70
43842;DHT22;29495;49.970;20.842;2023-04-16T09:37:22;18.10;58.10
43842;DHT22;29495;49.970;20.842;2023-04-16T09:39:52;18.00;58.00
43842;DHT22;29495;49.970;20.842;2023-04-16T09:42:34;18.00;57.70
43842;DHT22;29495;49.970;20.842;2023-04-16T09:45:00;17.90;58.70
43842;DHT22;29495;49.970;20.842;2023-04-16T09:47:42;17.60;57.60
43842;DHT22;29495;49.970;20.842;2023-04-16T09:50:09;17.80;57.60
43842;DHT22;29495;49.970;20.842;2023-04-16T09:52:38;18.10;58.00
43842;DHT22;29495;49.970;20.842;2023-04-16T09:55:04;18.20;57.20
43842;DHT22;29495;49.970;20.842;2023-04-16T09:57:30;18.50;56.20
43842;DHT22;29495;49.970;20.842;2023-04-16T10:00:03;17.80;57.10
43842;DHT22;29495;49.970;20.842;2023-04-16T10:02:30;18.00;57.50
43842;DHT22;29495;49.970;20.842;2023-04-16T10:04:57;18.00;57.10
43842;DHT22;29495;49.970;20.842;2023-04-16T10:07:30;18.10;56.60
43842;DHT22;29495;49.970;20.842;2023-04-16T10:09:58;18.30;56.80
43842;DHT22;29495;49.970;20.842;2023-04-16T10:12:26;18.40;56.20
43842;DHT22;29495;49.970;20.842;2023-04-16T10:14:53;18.70;55.10
43842;DHT22;29495;49.970;20.842;2023-04-16T10:17:19;18.20;55.70
43842;DHT22;29495;49.970;20.842;2023-04-16T10:19:45;18.70;55.50
43842;DHT22;29495;49.970;20.842;2023-04-16T10:22:12;18.70;56.10
43842;DHT22;29495;49.970;20.842;2023-04-16T10:24:38;19.10;54.20
43842;DHT22;29495;49.970;20.842;2023-04-16T10:27:05;19.30;53.90
43842;DHT22;29495;49.970;20.842;2023-04-16T10:29:31;19.40;57.50
43842;DHT22;29495;49.970;20.842;2023-04-16T10:31:58;19.30;54.20
43842;DHT22;29495;49.970;20.842;2023-04-16T10:34:24;19.00;57.00
43842;DHT22;29495;49.970;20.842;2023-04-16T10:36:51;19.40;53.00
43842;DHT22;29495;49.970;20.842;2023-04-16T10:39:26;19.10;54.10
43842;DHT22;29495;49.970;20.842;2023-04-16T10:42:05;19.30;54.70
43842;DHT22;29495;49.970;20.842;2023-04-16T10:44:32;19.70;53.90
43842;DHT22;29495;49.970;20.842;2023-04-16T10:46:58;19.80;55.90
43842;DHT22;29495;49.970;20.842;2023-04-16T10:49:24;19.80;51.00
43842;DHT22;29495;49.970;20.842;2023-04-16T10:51:53;19.40;51.90
43842;DHT22;29495;49.970;20.842;2023-04-16T10:54:22;18.70;55.20
43842;DHT22;29495;49.970;20.842;2023-04-16T10:56:48;18.80;53.40
43842;DHT22;29495;49.970;20.842;2023-04-16T10:59:18;19.20;54.60
43842;DHT22;29495;49.970;20.842;2023-04-16T11:01:45;18.80;55.20
43842;DHT22;29495;49.970;20.842;2023-04-16T11:07:04;18.60;56.80
43842;DHT22;29495;49.970;20.842;2023-04-16T11:09:52;18.70;56.20
43842;DHT22;29495;49.970;20.842;2023-04-16T11:12:37;18.70;53.70
43842;DHT22;29495;49.970;20.842;2023-04-16T11:15:07;18.90;54.40
43842;DHT22;29495;49.970;20.842;2023-04-16T11:20:40;18.20;54.90
43842;DHT22;29495;49.970;20.842;2023-04-16T11:23:10;18.00;55.70
43842;DHT22;29495;49.970;20.842;2023-04-16T11:25:37;17.80;54.90
43842;DHT22;29495;49.970;20.842;2023-04-16T11:28:03;18.20;54.70
43842;DHT22;29495;49.970;20.842;2023-04-16T11:30:33;17.80;53.60
43842;DHT22;29495;49.970;20.842;2023-04-16T11:33:08;18.40;54.00
43842;DHT22;29495;49.970;20.842;2023-04-16T11:35:36;18.50;53.00
43842;DHT22;29495;49.970;20.842;2023-04-16T11:38:03;19.00;51.80
43842;DHT22;29495;49.970;20.842;2023-04-16T11:40:31;19.20;51.90
43842;DHT22;29495;49.970;20.842;2023-04-16T11:43:05;19.40;50.00
43842;DHT22;29495;49.970;20.842;2023-04-16T11:45:37;19.20;51.50
43842;DHT22;29495;49.970;20.842;2023-04-16T11:48:03;19.40;51.40
43842;DHT22;29495;49.970;20.842;2023-04-16T11:50:29;19.50;52.60
43842;DHT22;29495;49.970;20.842;2023-04-16T11:52:56;19.50;53.90
43842;DHT22;29495;49.970;20.842;2023-04-16T11:55:25;19.30;50.50
43842;DHT22;29495;49.970;20.842;2023-04-16T11:57:54;19.20;51.60
43842;DHT22;29495;49.970;20.842;2023-04-16T12:00:25;18.90;54.20
43842;DHT22;29495;49.970;20.842;2023-04-16T12:02:59;19.00;52.80
43842;DHT22;29495;49.970;20.842;2023-04-16T12:05:37;19.10;53.30
43842;DHT22;29495;49.970;20.842;2023-04-16T13:12:37;19.50;52.10
43842;DHT22;29495;49.970;20.842;2023-04-16T13:25:35;19.80;52.80
43842;DHT22;29495;49.970;20.842;2023-04-16T13:35:27;18.30;54.10
43842;DHT22;29495;49.970;20.842;2023-04-16T13:56:09;19.10;53.50
43842;DHT22;29495;49.970;20.842;2023-04-16T13:58:42;19.10;54.40
43842;DHT22;29495;49.970;20.842;2023-04-16T14:01:08;19.00;55.00
43842;DHT22;29495;49.970;20.842;2023-04-16T14:03:34;18.90;55.20
43842;DHT22;29495;49.970;20.842;2023-04-16T14:06:02;19.00;55.70
43842;DHT22;29495;49.970;20.842;2023-04-16T14:08:28;18.70;53.70
43842;DHT22;29495;49.970;20.842;2023-04-16T14:10:55;19.10;54.50
43842;DHT22;29495;49.970;20.842;2023-04-16T14:13:21;19.00;53.60
43842;DHT22;29495;49.970;20.842;2023-04-16T14:15:47;19.20;55.60
43842;DHT22;29495;49.970;20.842;2023-04-16T14:18:13;19.10;55.80
43842;DHT22;29495;49.970;20.842;2023-04-16T14:20:39;18.60;54.70
43842;DHT22;29495;49.970;20.842;2023-04-16T14:23:05;18.50;56.20
43842;DHT22;29495;49.970;20.842;2023-04-16T14:25:31;18.60;58.50
43842;DHT22;29495;49.970;20.842;2023-04-16T14:27:58;18.80;55.50
43842;DHT22;29495;49.970;20.842;2023-04-16T14:30:24;18.80;56.30
43842;DHT22;29495;49.970;20.842;2023-04-16T14:32:50;18.40;54.70
43842;DHT22;29495;49.970;20.842;2023-04-16T14:35:15;18.20;55.40
43842;DHT22;29495;49.970;20.842;2023-04-16T14:37:42;18.00;55.70
43842;DHT22;29495;49.970;20.842;2023-04-16T14:40:08;18.50;58.30
43842;DHT22;29495;49.970;20.842;2023-04-16T14:42:34;18.50;57.10
43842;DHT22;29495;49.970;20.842;2023-04-16T14:45:03;18.30;55.40
43842;DHT22;29495;49.970;20.842;2023-04-16T14:47:32;18.10;56.70
43842;DHT22;29495;49.970;20.842;2023-04-16T14:49:59;18.00;57.20
43842;DHT22;29495;49.970;20.842;2023-04-16T14:52:27;17.90;57.40
43842;DHT22;29495;49.970;20.842;2023-04-16T14:54:53;18.20;57.20
43842;DHT22;29495;49.970;20.842;2023-04-16T14:57:20;18.40;55.90
43842;DHT22;29495;49.970;20.842;2023-04-16T14:59:48;18.50;55.30
43842;DHT22;29495;49.970;20.842;2023-04-16T15:02:14;18.30;55.70
43842;DHT22;29495;49.970;20.842;2023-04-16T15:04:40;18.10;56.00
43842;DHT22;29495;49.970;20.842;2023-04-16T15:07:06;18.20;57.00
43842;DHT22;29495;49.970;20.842;2023-04-16T15:09:35;18.30;57.90
43842;DHT22;29495;49.970;20.842;2023-04-16T15:12:04;18.20;57.40
43842;DHT22;29495;49.970;20.842;2023-04-16T15:14:30;18.20;56.80
43842;DHT22;29495;49.970;20.842;2023-04-16T15:16:56;18.20;57.90
43842;DHT22;29495;49.970;20.842;2023-04-16T15:19:32;18.20;57.10
43842;DHT22;29495;49.970;20.842;2023-04-16T15:22:05;18.10;57.10
43842;DHT22;29495;49.970;20.842;2023-04-16T15:25:17;18.10;57.50
43842;DHT22;29495;49.970;20.842;2023-04-16T15:28:24;18.00;56.50
43842;DHT22;29495;49.970;20.842;2023-04-16T15:30:50;18.00;56.10
43842;DHT22;29495;49.970;20.842;2023-04-16T15:33:17;17.90;56.60
43842;DHT22;29495;49.970;20.842;2023-04-16T15:35:44;18.00;56.80
43842;DHT22;29495;49.970;20.842;2023-04-16T15:38:10;18.00;56.10
43842;DHT22;29495;49.970;20.842;2023-04-16T15:40:36;18.20;55.80
43842;DHT22;29495;49.970;20.842;2023-04-16T15:43:02;18.50;55.50
43842;DHT22;29495;49.970;20.842;2023-04-16T15:45:28;18.80;54.60
43842;DHT22;29495;49.970;20.842;2023-04-16T15:47:54;19.20;54.60
43842;DHT22;29495;49.970;20.842;2023-04-16T15:50:20;18.80;54.40
43842;DHT22;29495;49.970;20.842;2023-04-16T15:52:46;18.60;55.60
43842;DHT22;29495;49.970;20.842;2023-04-16T15:55:13;18.80;55.60
43842;DHT22;29495;49.970;20.842;2023-04-16T15:57:39;18.90;56.50
43842;DHT22;29495;49.970;20.842;2023-04-16T16:00:05;18.70;55.80
43842;DHT22;29495;49.970;20.842;2023-04-16T16:02:38;18.40;56.00
43842;DHT22;29495;49.970;20.842;2023-04-16T16:05:04;18.30;56.20
43842;DHT22;29495;49.970;20.842;2023-04-16T16:07:32;18.00;57.30
43842;DHT22;29495;49.970;20.842;2023-04-16T16:09:58;17.70;56.60
43842;DHT22;29495;49.970;20.842;2023-04-16T16:12:24;17.50;56.80
43842;DHT22;29495;49.970;20.842;2023-04-16T16:14:49;17.40;57.10
43842;DHT22;29495;49.970;20.842;2023-04-16T16:17:16;17.50;57.70
43842;DHT22;29495;49.970;20.842;2023-04-16T16:19:43;17.50;57.90
43842;DHT22;29495;49.970;20.842;2023-04-16T16:22:09;17.40;58.60
43842;DHT22;29495;49.970;20.842;2023-04-16T16:24:35;17.30;58.10
43842;DHT22;29495;49.970;20.842;2023-04-16T16:27:01;17.30;58.70
43842;DHT22;29495;49.970;20.842;2023-04-16T16:29:27;17.20;58.50
43842;DHT22;29495;49.970;20.842;2023-04-16T16:31:53;16.90;58.90
43842;DHT22;29495;49.970;20.842;2023-04-16T16:34:18;16.90;59.40
43842;DHT22;29495;49.970;20.842;2023-04-16T16:36:45;16.80;59.10
43842;DHT22;29495;49.970;20.842;2023-04-16T16:39:10;16.70;59.80
43842;DHT22;29495;49.970;20.842;2023-04-16T16:41:36;16.60;59.40
43842;DHT22;29495;49.970;20.842;2023-04-16T16:44:06;16.40;59.70
43842;DHT22;29495;49.970;20.842;2023-04-16T16:46:32;16.30;60.30
43842;DHT22;29495;49.970;20.842;2023-04-16T16:48:58;16.20;61.30
43842;DHT22;29495;49.970;20.842;2023-04-16T16:51:26;16.20;61.20
43842;DHT22;29495;49.970;20.842;2023-04-16T16:53:54;16.10;60.90
43842;DHT22;29495;49.970;20.842;2023-04-16T17:04:04;15.70;62.60
43842;DHT22;29495;49.970;20.842;2023-04-16T17:06:30;15.70;63.50
43842;DHT22;29495;49.970;20.842;2023-04-16T17:08:57;15.50;63.10
43842;DHT22;29495;49.970;20.842;2023-04-16T17:11:23;15.40;63.80
43842;DHT22;29495;49.970;20.842;2023-04-16T17:13:52;15.30;64.00
43842;DHT22;29495;49.970;20.842;2023-04-16T17:16:18;15.20;64.80
43842;DHT22;29495;49.970;20.842;2023-04-16T17:18:43;15.10;65.20
43842;DHT22;29495;49.970;20.842;2023-04-16T17:21:09;15.00;65.40